Time;durP1;ratioP1;P1;durP2;ratioP2;P2;SDS_P1;SDS_P2;PMS_P1;PMS_P2;Temp;Humidity;BMP_temperature;BMP_pressure;BME280_temperature;BME280_humidity;BME280_pressure;Samples;Min_cycle;Max_cycle;Signal;HPM_P1;HPM_P2
2022/12/30 00:00:11;;;;;;;;;;;17.20;82.80;;;;;;5080032;28;19950;-44
2022/12/30 00:02:36;;;;;;;;;;;17.20;82.80;;;;;;5115174;28;20378;-43
2022/12/30 00:05:02;;;;;;;;;;;17.20;82.80;;;;;;5115479;28;19934;-46
2022/12/30 00:07:27;;;;;;;;;;;17.10;82.80;;;;;;5115024;28;20370;-45
2022/12/30 00:09:56;;;;;;;;;;;17.20;82.80;;;;;;5096798;28;19961;-44
2022/12/30 00:34:17;;;;;;;;;;;17.20;82.70;;;;;;5114610;28;20003;-44
2022/12/30 00:36:43;;;;;;;;;;;17.20;82.70;;;;;;5114696;28;19920;-46
2022/12/30 00:39:08;;;;;;;;;;;17.20;82.70;;;;;;5114845;28;20426;-44
2022/12/30 00:44:17;;;;;;;;;;;17.20;82.80;;;;;;5114457;28;20282;-43
2022/12/30 00:46:43;;;;;;;;;;;17.20;82.70;;;;;;5114363;28;19908;-43
2022/12/30 00:57:21;;;;;;;;;;;17.20;82.70;;;;;;5114265;28;19970;-44
2022/12/30 00:59:47;;;;;;;;;;;17.20;82.70;;;;;;5114449;28;19908;-47
2022/12/30 01:02:12;;;;;;;;;;;17.20;82.70;;;;;;5114431;28;20010;-49
2022/12/30 01:04:38;;;;;;;;;;;17.20;82.70;;;;;;5114222;28;20362;-43
2022/12/30 01:07:03;;;;;;;;;;;17.20;82.70;;;;;;5114481;28;19915;-45
2022/12/30 01:09:28;;;;;;;;;;;17.20;82.70;;;;;;5114367;28;19953;-47
2022/12/30 01:12:09;;;;;;;;;;;17.20;82.70;;;;;;5096253;28;19908;-43
2022/12/30 01:14:36;;;;;;;;;;;17.20;82.70;;;;;;5114381;28;19908;-46
2022/12/30 01:17:02;;;;;;;;;;;17.20;82.70;;;;;;5114237;28;19915;-43
2022/12/30 01:19:27;;;;;;;;;;;17.20;82.70;;;;;;5114281;28;19908;-47
2022/12/30 01:21:53;;;;;;;;;;;17.20;82.80;;;;;;5096040;28;19930;-43
2022/12/30 01:24:18;;;;;;;;;;;17.20;82.80;;;;;;5113946;28;20400;-45
2022/12/30 01:26:44;;;;;;;;;;;17.20;82.80;;;;;;5114185;28;19907;-43
2022/12/30 01:29:09;;;;;;;;;;;17.20;82.80;;;;;;5114169;28;19911;-44
2022/12/30 01:31:35;;;;;;;;;;;17.20;82.90;;;;;;5113756;28;19909;-44
2022/12/30 01:34:00;;;;;;;;;;;17.20;82.80;;;;;;5114833;28;19908;-43
2022/12/30 01:36:26;;;;;;;;;;;17.20;82.90;;;;;;5117799;28;20423;-43
2022/12/30 01:38:51;;;;;;;;;;;17.10;82.80;;;;;;5118150;28;19972;-47
2022/12/30 01:41:17;;;;;;;;;;;17.10;82.80;;;;;;5118077;28;20372;-43
2022/12/30 01:43:51;;;;;;;;;;;17.10;82.80;;;;;;5117967;28;19908;-43
2022/12/30 01:46:20;;;;;;;;;;;17.10;82.90;;;;;;5117736;28;19915;-43
2022/12/30 01:48:46;;;;;;;;;;;17.20;82.90;;;;;;5117593;28;20370;-43
2022/12/30 01:51:20;;;;;;;;;;;17.10;82.80;;;;;;5099656;28;19915;-46
2022/12/30 01:53:47;;;;;;;;;;;17.20;82.90;;;;;;5117737;28;19914;-46
2022/12/30 01:56:16;;;;;;;;;;;17.10;82.80;;;;;;5117692;28;19916;-47
2022/12/30 01:58:47;;;;;;;;;;;17.20;82.90;;;;;;5117940;28;19915;-44
2022/12/30 02:01:13;;;;;;;;;;;17.20;82.80;;;;;;5117707;28;19951;-46
2022/12/30 02:03:39;;;;;;;;;;;17.10;82.70;;;;;;5117476;28;20345;-43
2022/12/30 02:06:05;;;;;;;;;;;17.20;82.80;;;;;;5117784;28;19930;-47
2022/12/30 02:08:33;;;;;;;;;;;17.20;82.80;;;;;;5117217;28;20252;-47
2022/12/30 02:10:59;;;;;;;;;;;17.20;82.80;;;;;;5117509;28;19908;-43
2022/12/30 02:13:24;;;;;;;;;;;17.20;82.80;;;;;;5117155;28;20003;-43
2022/12/30 02:16:09;;;;;;;;;;;17.20;82.70;;;;;;5116994;28;19924;-45
2022/12/30 02:18:41;;;;;;;;;;;17.20;82.70;;;;;;5099066;28;19961;-44
2022/12/30 02:21:07;;;;;;;;;;;17.10;82.70;;;;;;5117146;28;19907;-50
2022/12/30 02:23:51;;;;;;;;;;;17.20;82.70;;;;;;5117270;28;20031;-43
2022/12/30 02:26:28;;;;;;;;;;;17.10;82.70;;;;;;5117197;28;19998;-43
2022/12/30 02:29:09;;;;;;;;;;;17.20;82.80;;;;;;5098902;28;19911;-44
2022/12/30 02:31:53;;;;;;;;;;;17.20;82.80;;;;;;5116703;28;19955;-44
2022/12/30 02:34:25;;;;;;;;;;;17.10;82.70;;;;;;5098628;28;19939;-45
2022/12/30 02:37:04;;;;;;;;;;;17.20;82.80;;;;;;5116615;28;19919;-44
2022/12/30 02:39:33;;;;;;;;;;;17.20;82.80;;;;;;5117177;28;19927;-47
2022/12/30 02:44:50;;;;;;;;;;;17.10;82.70;;;;;;5116905;28;20270;-45
2022/12/30 02:47:18;;;;;;;;;;;17.20;82.80;;;;;;5116280;28;19914;-44
2022/12/30 02:52:14;;;;;;;;;;;17.20;82.80;;;;;;5116425;28;19939;-44
2022/12/30 02:52:32;;;;;;;;;;;17.10;82.80;;;;;;5116255;28;19942;-43
2022/12/30 02:54:58;;;;;;;;;;;17.10;82.80;;;;;;5116315;28;19907;-48
2022/12/30 02:57:31;;;;;;;;;;;17.20;82.80;;;;;;5116228;28;19974;-43
2022/12/30 03:05:57;;;;;;;;;;;17.10;82.90;;;;;;5116164;28;19915;-44
2022/12/30 03:08:26;;;;;;;;;;;17.10;82.80;;;;;;5116393;28;19907;-46
2022/12/30 03:11:13;;;;;;;;;;;17.10;82.80;;;;;;5116209;28;20254;-47
2022/12/30 03:13:56;;;;;;;;;;;17.10;82.80;;;;;;5116084;28;20294;-46
2022/12/30 03:16:35;;;;;;;;;;;17.20;82.80;;;;;;5116116;28;19915;-44
2022/12/30 03:19:03;;;;;;;;;;;17.10;82.80;;;;;;5116155;28;19907;-45
2022/12/30 03:21:30;;;;;;;;;;;17.10;82.80;;;;;;5115836;28;20270;-47
2022/12/30 03:29:28;;;;;;;;;;;17.10;82.70;;;;;;5115757;28;19957;-45
2022/12/30 03:31:54;;;;;;;;;;;17.10;82.70;;;;;;5115865;28;19908;-43
2022/12/30 03:34:20;;;;;;;;;;;17.10;82.70;;;;;;5115604;28;20309;-47
2022/12/30 03:36:47;;;;;;;;;;;17.20;82.80;;;;;;5115876;28;19969;-45
2022/12/30 03:39:30;;;;;;;;;;;17.20;82.70;;;;;;5116100;28;19919;-43
2022/12/30 03:41:56;;;;;;;;;;;17.10;82.70;;;;;;5115725;28;19916;-44
2022/12/30 03:44:22;;;;;;;;;;;17.20;82.80;;;;;;5115607;28;20033;-43
2022/12/30 03:46:47;;;;;;;;;;;17.10;82.70;;;;;;5115897;28;19972;-43
2022/12/30 03:49:13;;;;;;;;;;;17.20;82.70;;;;;;5115510;28;19908;-45
2022/12/30 03:51:39;;;;;;;;;;;17.10;82.70;;;;;;5115094;28;19908;-47
2022/12/30 03:54:04;;;;;;;;;;;17.10;82.70;;;;;;5115117;28;19962;-46
2022/12/30 03:56:30;;;;;;;;;;;17.20;82.70;;;;;;5097017;28;19973;-46
2022/12/30 03:58:55;;;;;;;;;;;17.20;82.70;;;;;;5115315;28;19982;-45
2022/12/30 04:01:21;;;;;;;;;;;17.10;82.70;;;;;;5114944;28;19961;-48
2022/12/30 04:03:46;;;;;;;;;;;17.10;82.70;;;;;;5115193;28;20010;-44
2022/12/30 04:06:12;;;;;;;;;;;17.10;83.20;;;;;;5114839;28;19954;-43
2022/12/30 04:08:37;;;;;;;;;;;17.20;82.70;;;;;;5115137;28;19908;-44
2022/12/30 04:11:03;;;;;;;;;;;17.20;82.70;;;;;;5114753;28;20011;-48
2022/12/30 04:13:28;;;;;;;;;;;17.20;82.70;;;;;;5114553;28;19908;-48
2022/12/30 04:15:54;;;;;;;;;;;17.10;82.70;;;;;;5096626;28;19916;-44
2022/12/30 04:18:19;;;;;;;;;;;17.20;82.80;;;;;;5114934;28;19921;-44
2022/12/30 04:20:46;;;;;;;;;;;17.10;82.70;;;;;;5114653;28;19914;-48
2022/12/30 04:23:11;;;;;;;;;;;17.10;82.70;;;;;;5114630;28;20366;-44
2022/12/30 04:25:37;;;;;;;;;;;17.10;82.70;;;;;;5114525;28;19914;-46
2022/12/30 04:28:02;;;;;;;;;;;17.10;82.70;;;;;;5096589;28;19941;-45
2022/12/30 04:30:28;;;;;;;;;;;17.20;82.80;;;;;;5114753;28;19914;-43
2022/12/30 04:32:53;;;;;;;;;;;17.10;82.70;;;;;;5114361;28;19908;-43
2022/12/30 04:35:19;;;;;;;;;;;17.10;82.70;;;;;;5114400;28;19908;-45
2022/12/30 04:37:47;;;;;;;;;;;17.20;82.80;;;;;;5114162;28;19919;-44
2022/12/30 04:40:12;;;;;;;;;;;17.10;82.70;;;;;;5096570;28;19908;-46
2022/12/30 04:42:37;;;;;;;;;;;17.10;82.70;;;;;;5114244;28;19907;-44
2022/12/30 04:45:05;;;;;;;;;;;17.20;82.80;;;;;;5113783;28;20397;-45
2022/12/30 04:47:30;;;;;;;;;;;17.10;82.70;;;;;;5114417;28;19953;-44
2022/12/30 04:49:56;;;;;;;;;;;17.10;82.70;;;;;;5114429;28;19908;-47
2022/12/30 04:52:21;;;;;;;;;;;17.10;82.70;;;;;;5114384;28;19998;-44
2022/12/30 04:54:47;;;;;;;;;;;17.10;82.70;;;;;;5114194;28;19912;-48
2022/12/30 04:57:12;;;;;;;;;;;17.10;82.70;;;;;;5114337;28;20362;-47
2022/12/30 04:59:38;;;;;;;;;;;17.10;82.70;;;;;;5114424;28;19916;-43
2022/12/30 05:02:03;;;;;;;;;;;17.10;82.70;;;;;;5114077;28;19908;-46
2022/12/30 05:04:29;;;;;;;;;;;17.20;82.80;;;;;;5114345;28;19960;-44
2022/12/30 05:06:54;;;;;;;;;;;17.20;82.80;;;;;;5114058;28;19915;-48
2022/12/30 05:09:20;;;;;;;;;;;17.20;82.80;;;;;;5097344;28;19964;-45
2022/12/30 05:11:45;;;;;;;;;;;17.10;82.70;;;;;;5118211;28;19915;-43
2022/12/30 05:14:11;;;;;;;;;;;17.10;82.70;;;;;;5118587;28;20278;-44
2022/12/30 05:16:36;;;;;;;;;;;17.10;82.70;;;;;;5118327;28;19912;-46
2022/12/30 05:19:02;;;;;;;;;;;17.20;82.80;;;;;;5100147;28;19918;-44
2022/12/30 05:21:27;;;;;;;;;;;17.10;82.70;;;;;;5118078;28;19912;-43
2022/12/30 05:26:37;;;;;;;;;;;17.10;82.70;;;;;;5117990;28;19915;-45
2022/12/30 05:29:02;;;;;;;;;;;17.10;82.80;;;;;;5118122;28;20334;-47
2022/12/30 05:31:28;;;;;;;;;;;17.10;82.70;;;;;;5118141;28;19915;-43
2022/12/30 05:33:53;;;;;;;;;;;17.10;82.80;;;;;;5117979;28;19959;-46
2022/12/30 05:36:19;;;;;;;;;;;17.20;82.80;;;;;;5099667;28;19912;-47
2022/12/30 05:38:44;;;;;;;;;;;17.10;82.80;;;;;;5117792;28;19920;-43
2022/12/30 05:41:10;;;;;;;;;;;17.10;82.80;;;;;;5117948;28;19966;-47
2022/12/30 05:43:35;;;;;;;;;;;17.10;82.80;;;;;;5117930;28;19914;-44
2022/12/30 05:46:01;;;;;;;;;;;17.10;82.80;;;;;;5117548;28;19957;-45
2022/12/30 05:48:26;;;;;;;;;;;17.10;82.80;;;;;;5117511;28;19908;-45
2022/12/30 05:50:52;;;;;;;;;;;17.10;82.80;;;;;;5117477;28;19908;-43
2022/12/30 05:53:17;;;;;;;;;;;17.20;82.80;;;;;;5117433;28;20002;-45
2022/12/30 05:55:43;;;;;;;;;;;17.20;82.90;;;;;;5117669;28;20396;-45
2022/12/30 05:58:08;;;;;;;;;;;17.10;82.80;;;;;;5117607;28;19911;-44
2022/12/30 06:00:34;;;;;;;;;;;17.20;82.80;;;;;;5117288;28;19908;-47
2022/12/30 06:02:59;;;;;;;;;;;17.20;82.80;;;;;;5117189;28;19912;-44
2022/12/30 06:05:25;;;;;;;;;;;17.10;82.80;;;;;;5117474;28;20383;-46
2022/12/30 06:07:50;;;;;;;;;;;17.20;82.80;;;;;;5117288;28;19908;-45
2022/12/30 06:10:16;;;;;;;;;;;17.20;82.80;;;;;;5117136;28;19914;-46
2022/12/30 06:12:41;;;;;;;;;;;17.10;82.70;;;;;;5117353;28;20339;-46
2022/12/30 06:15:07;;;;;;;;;;;17.20;82.70;;;;;;5117041;28;19915;-46
2022/12/30 06:17:32;;;;;;;;;;;17.10;82.70;;;;;;5117121;28;19916;-43
2022/12/30 06:19:58;;;;;;;;;;;17.20;82.70;;;;;;5116621;28;19908;-45
2022/12/30 06:22:23;;;;;;;;;;;17.20;82.70;;;;;;5115887;28;19908;-47
2022/12/30 06:24:49;;;;;;;;;;;17.10;82.70;;;;;;5099182;28;19930;-46
2022/12/30 06:27:14;;;;;;;;;;;17.10;82.60;;;;;;5117058;28;20089;-44
2022/12/30 06:29:40;;;;;;;;;;;17.20;82.70;;;;;;5116705;28;19920;-48
2022/12/30 06:32:05;;;;;;;;;;;17.10;82.60;;;;;;5116682;28;19908;-48
2022/12/30 06:34:31;;;;;;;;;;;17.20;82.70;;;;;;5116677;28;19908;-48
2022/12/30 06:36:56;;;;;;;;;;;17.20;82.70;;;;;;5116720;28;19923;-44
2022/12/30 06:39:22;;;;;;;;;;;17.20;82.70;;;;;;5116946;28;20297;-46
2022/12/30 06:41:48;;;;;;;;;;;17.10;82.70;;;;;;5116843;28;19958;-44
2022/12/30 06:44:13;;;;;;;;;;;17.20;82.70;;;;;;5116408;28;20400;-47
2022/12/30 06:46:39;;;;;;;;;;;17.20;82.70;;;;;;5116549;28;20270;-49
2022/12/30 06:49:04;;;;;;;;;;;17.20;82.70;;;;;;5116784;28;19915;-48
2022/12/30 06:51:30;;;;;;;;;;;17.10;82.70;;;;;;5116321;28;20041;-44
2022/12/30 06:53:55;;;;;;;;;;;17.10;82.70;;;;;;5116163;28;20355;-45
2022/12/30 06:56:21;;;;;;;;;;;17.10;82.70;;;;;;5116324;28;19915;-45
2022/12/30 06:58:46;;;;;;;;;;;17.10;82.70;;;;;;5116404;28;20416;-46
2022/12/30 07:01:12;;;;;;;;;;;17.20;82.80;;;;;;5116303;28;19908;-45
2022/12/30 07:03:37;;;;;;;;;;;17.20;82.80;;;;;;5116320;28;20321;-46
2022/12/30 07:06:03;;;;;;;;;;;17.20;82.80;;;;;;5116136;28;19908;-45
2022/12/30 07:08:29;;;;;;;;;;;17.10;82.70;;;;;;5116082;28;19908;-44
2022/12/30 07:10:54;;;;;;;;;;;17.20;82.80;;;;;;5116150;28;19914;-47
2022/12/30 07:13:19;;;;;;;;;;;17.10;82.70;;;;;;5097881;28;19916;-45
2022/12/30 07:15:45;;;;;;;;;;;17.10;82.70;;;;;;5115755;28;19947;-47
2022/12/30 07:18:10;;;;;;;;;;;17.20;82.80;;;;;;5115943;28;19934;-46
2022/12/30 07:20:37;;;;;;;;;;;17.20;82.80;;;;;;5116004;28;19908;-46
2022/12/30 07:23:02;;;;;;;;;;;17.10;82.70;;;;;;5115911;28;19930;-45
2022/12/30 07:25:28;;;;;;;;;;;17.10;82.70;;;;;;5115875;28;19908;-46
2022/12/30 07:27:56;;;;;;;;;;;17.10;82.70;;;;;;5097557;28;19912;-46
2022/12/30 07:30:21;;;;;;;;;;;17.10;82.70;;;;;;5115466;28;19915;-46
2022/12/30 07:32:47;;;;;;;;;;;17.10;82.70;;;;;;5115507;28;19908;-45
2022/12/30 07:35:12;;;;;;;;;;;17.20;82.80;;;;;;5115790;28;19951;-44
2022/12/30 07:37:38;;;;;;;;;;;17.10;82.70;;;;;;5115259;28;20385;-45
2022/12/30 07:40:04;;;;;;;;;;;17.10;82.70;;;;;;5115304;28;19914;-44
2022/12/30 07:42:30;;;;;;;;;;;17.10;82.70;;;;;;5115338;28;19973;-44
2022/12/30 07:44:55;;;;;;;;;;;17.20;82.70;;;;;;5115515;28;19908;-46
2022/12/30 07:47:20;;;;;;;;;;;17.20;82.70;;;;;;5115467;28;19908;-43
2022/12/30 07:49:46;;;;;;;;;;;17.10;82.70;;;;;;5115417;28;20401;-44
2022/12/30 07:52:11;;;;;;;;;;;17.10;82.70;;;;;;5097576;28;20003;-42
2022/12/30 07:54:37;;;;;;;;;;;17.20;82.70;;;;;;5114991;28;19907;-43
2022/12/30 07:57:02;;;;;;;;;;;17.10;82.70;;;;;;5114749;28;19911;-43
2022/12/30 07:59:28;;;;;;;;;;;17.10;82.70;;;;;;5115136;28;20239;-44
2022/12/30 08:01:53;;;;;;;;;;;17.20;82.70;;;;;;5114900;28;19937;-46
2022/12/30 08:04:19;;;;;;;;;;;17.10;82.70;;;;;;5114577;28;19915;-43
2022/12/30 08:06:44;;;;;;;;;;;17.20;82.70;;;;;;5096644;28;19908;-44
2022/12/30 08:09:10;;;;;;;;;;;17.10;82.70;;;;;;5114922;28;19919;-43
2022/12/30 08:11:35;;;;;;;;;;;17.10;82.70;;;;;;5114685;28;19908;-45
2022/12/30 08:14:01;;;;;;;;;;;17.10;82.70;;;;;;5114645;28;20393;-43
2022/12/30 08:16:26;;;;;;;;;;;17.20;82.70;;;;;;5114689;28;19954;-45
2022/12/30 08:18:52;;;;;;;;;;;17.10;82.70;;;;;;5114810;28;19989;-44
2022/12/30 08:21:17;;;;;;;;;;;17.20;82.80;;;;;;5114794;28;20374;-44
2022/12/30 08:23:44;;;;;;;;;;;17.20;82.80;;;;;;5114626;28;19965;-45
2022/12/30 08:26:11;;;;;;;;;;;17.20;82.80;;;;;;5114471;28;19915;-43
2022/12/30 08:28:36;;;;;;;;;;;17.10;82.70;;;;;;5114682;28;19961;-44
2022/12/30 08:31:22;;;;;;;;;;;17.20;82.80;;;;;;5114348;28;19908;-43
2022/12/30 08:33:48;;;;;;;;;;;17.10;82.70;;;;;;5095551;28;20010;-45
2022/12/30 08:36:14;;;;;;;;;;;17.20;82.80;;;;;;5114747;28;20014;-44
2022/12/30 08:38:41;;;;;;;;;;;17.10;82.70;;;;;;5114554;28;19923;-44
2022/12/30 08:41:08;;;;;;;;;;;17.10;82.70;;;;;;5114574;28;19912;-42
2022/12/30 08:43:34;;;;;;;;;;;17.20;82.80;;;;;;5114038;28;19908;-44
2022/12/30 08:45:59;;;;;;;;;;;17.20;82.80;;;;;;5114657;28;20528;-43
2022/12/30 08:48:25;;;;;;;;;;;17.20;83.30;;;;;;5114080;28;19908;-46
2022/12/30 08:50:52;;;;;;;;;;;17.20;82.80;;;;;;5114389;28;19959;-44
2022/12/30 08:53:18;;;;;;;;;;;17.20;82.80;;;;;;5114662;28;19908;-45
2022/12/30 08:55:44;;;;;;;;;;;17.20;82.70;;;;;;5113972;28;19977;-46
2022/12/30 08:58:09;;;;;;;;;;;17.20;82.70;;;;;;5113896;28;19907;-47
2022/12/30 09:00:36;;;;;;;;;;;17.20;82.70;;;;;;5113991;28;19908;-47
2022/12/30 09:03:02;;;;;;;;;;;17.20;82.70;;;;;;5113775;28;19934;-45
2022/12/30 09:05:28;;;;;;;;;;;17.20;82.60;;;;;;5114039;28;19936;-48
2022/12/30 09:07:54;;;;;;;;;;;17.30;82.70;;;;;;5114636;28;20358;-45
2022/12/30 09:10:19;;;;;;;;;;;17.20;82.60;;;;;;5113956;28;19976;-44
2022/12/30 09:12:45;;;;;;;;;;;17.30;82.60;;;;;;5095969;28;19908;-49
2022/12/30 09:15:10;;;;;;;;;;;17.20;82.50;;;;;;5114274;28;19994;-45
2022/12/30 09:17:36;;;;;;;;;;;17.30;82.60;;;;;;5114097;28;19923;-44
2022/12/30 09:20:01;;;;;;;;;;;17.20;82.50;;;;;;5114053;28;19912;-44
2022/12/30 09:22:27;;;;;;;;;;;17.30;82.50;;;;;;5114124;28;19908;-45
2022/12/30 09:24:52;;;;;;;;;;;17.30;82.60;;;;;;5113959;28;19915;-45
2022/12/30 09:27:18;;;;;;;;;;;17.30;82.60;;;;;;5113746;28;20003;-48
2022/12/30 09:29:43;;;;;;;;;;;17.30;82.60;;;;;;5114117;28;19934;-43
2022/12/30 09:32:08;;;;;;;;;;;17.30;82.60;;;;;;5114011;28;19930;-46
2022/12/30 09:34:34;;;;;;;;;;;17.30;82.60;;;;;;5114028;28;19908;-43
2022/12/30 09:36:59;;;;;;;;;;;17.30;82.60;;;;;;5113797;28;19920;-46
2022/12/30 09:39:31;;;;;;;;;;;17.30;82.60;;;;;;5113184;28;20271;-46
2022/12/30 09:45:01;;;;;;;;;;;17.30;82.70;;;;;;5113840;28;20373;-43
2022/12/30 09:47:28;;;;;;;;;;;17.20;82.60;;;;;;5113364;28;19908;-44
2022/12/30 09:50:06;;;;;;;;;;;17.30;82.70;;;;;;5113668;28;19950;-45
2022/12/30 09:52:34;;;;;;;;;;;17.20;82.70;;;;;;5113766;28;19907;-44
2022/12/30 09:55:02;;;;;;;;;;;17.30;82.70;;;;;;5114527;28;20307;-44
2022/12/30 09:57:31;;;;;;;;;;;17.20;82.70;;;;;;5117039;28;19916;-44
2022/12/30 10:00:17;;;;;;;;;;;17.30;82.70;;;;;;5117395;28;20362;-45
2022/12/30 10:02:55;;;;;;;;;;;17.30;82.70;;;;;;5116695;28;20239;-46
2022/12/30 10:05:32;;;;;;;;;;;17.30;82.70;;;;;;5117476;28;19912;-46
2022/12/30 10:08:17;;;;;;;;;;;17.30;82.60;;;;;;5117272;28;20317;-45
2022/12/30 10:10:56;;;;;;;;;;;17.30;82.60;;;;;;5099093;28;19913;-46
2022/12/30 10:13:33;;;;;;;;;;;17.30;82.60;;;;;;5098843;28;19977;-47
2022/12/30 10:16:05;;;;;;;;;;;17.40;82.60;;;;;;5116780;28;19912;-46
2022/12/30 10:18:55;;;;;;;;;;;17.30;82.50;;;;;;5117113;28;20397;-45
2022/12/30 10:21:27;;;;;;;;;;;17.30;82.50;;;;;;5117164;28;19961;-45
2022/12/30 10:24:15;;;;;;;;;;;17.30;82.50;;;;;;5117453;28;20347;-45
2022/12/30 10:26:41;;;;;;;;;;;17.40;82.50;;;;;;5098527;28;20271;-44
2022/12/30 10:29:31;;;;;;;;;;;17.40;82.50;;;;;;5098524;28;20002;-47
2022/12/30 10:31:57;;;;;;;;;;;17.40;82.50;;;;;;5106093;28;19998;-45
2022/12/30 10:34:28;;;;;;;;;;;17.40;82.50;;;;;;5116514;28;20366;-48
2022/12/30 10:37:04;;;;;;;;;;;17.30;82.50;;;;;;5116490;28;20332;-47
2022/12/30 10:39:40;;;;;;;;;;;17.30;82.50;;;;;;5116907;28;19924;-45
2022/12/30 10:42:18;;;;;;;;;;;17.30;82.60;;;;;;5098433;28;19955;-44
2022/12/30 10:44:43;;;;;;;;;;;17.30;82.60;;;;;;5116644;28;19908;-44
2022/12/30 10:47:20;;;;;;;;;;;17.30;82.60;;;;;;5098217;28;19908;-47
2022/12/30 10:49:52;;;;;;;;;;;17.30;82.60;;;;;;5116363;28;20317;-47
2022/12/30 10:52:18;;;;;;;;;;;17.30;82.70;;;;;;5116748;28;19907;-48
2022/12/30 10:54:44;;;;;;;;;;;17.30;82.70;;;;;;5116584;28;19995;-45
2022/12/30 10:57:19;;;;;;;;;;;17.30;82.70;;;;;;5116456;28;20497;-46
2022/12/30 10:59:45;;;;;;;;;;;17.30;82.80;;;;;;5116453;28;19965;-45
2022/12/30 11:02:43;;;;;;;;;;;17.30;82.80;;;;;;5116150;28;20301;-45
2022/12/30 11:05:29;;;;;;;;;;;17.30;82.80;;;;;;5070743;28;19907;-44
2022/12/30 11:07:55;;;;;;;;;;;17.30;82.90;;;;;;5115523;28;19960;-47
2022/12/30 11:10:21;;;;;;;;;;;17.30;82.90;;;;;;5116548;28;19930;-44
2022/12/30 11:15:30;;;;;;;;;;;17.40;82.90;;;;;;5115724;28;19957;-45
2022/12/30 11:17:57;;;;;;;;;;;17.40;82.80;;;;;;5115639;28;19919;-49
2022/12/30 11:20:28;;;;;;;;;;;17.40;82.80;;;;;;5097798;28;19951;-46
2022/12/30 11:22:55;;;;;;;;;;;17.40;82.80;;;;;;5097673;28;19908;-45
2022/12/30 11:25:21;;;;;;;;;;;17.40;82.80;;;;;;5115523;28;19912;-46
2022/12/30 11:27:48;;;;;;;;;;;17.40;82.80;;;;;;5115600;28;20266;-44
2022/12/30 11:30:24;;;;;;;;;;;17.40;82.80;;;;;;5115686;28;19907;-48
2022/12/30 11:32:51;;;;;;;;;;;17.40;82.70;;;;;;5115742;28;19927;-46
2022/12/30 11:35:35;;;;;;;;;;;17.40;82.70;;;;;;5115328;28;19908;-45
2022/12/30 11:38:01;;;;;;;;;;;17.40;82.60;;;;;;5115319;28;19923;-46
2022/12/30 11:40:34;;;;;;;;;;;17.40;82.60;;;;;;5115503;28;19941;-47
2022/12/30 11:43:11;;;;;;;;;;;17.40;82.60;;;;;;5115460;28;19911;-45
2022/12/30 11:45:46;;;;;;;;;;;17.40;82.60;;;;;;5115493;28;19961;-44
2022/12/30 11:48:21;;;;;;;;;;;17.40;82.60;;;;;;5114888;28;19915;-45
2022/12/30 11:50:50;;;;;;;;;;;17.40;82.60;;;;;;5115484;28;19912;-45
2022/12/30 11:53:17;;;;;;;;;;;17.40;82.60;;;;;;5115320;28;19915;-44
2022/12/30 11:55:48;;;;;;;;;;;17.40;82.70;;;;;;5115072;28;20251;-44
2022/12/30 11:58:14;;;;;;;;;;;17.40;82.70;;;;;;5115037;28;19911;-46
2022/12/30 12:00:40;;;;;;;;;;;17.40;82.70;;;;;;5114933;28;19915;-43
2022/12/30 12:03:11;;;;;;;;;;;17.40;82.70;;;;;;5114778;28;20009;-48
2022/12/30 12:05:40;;;;;;;;;;;17.40;82.80;;;;;;5115210;28;19908;-46
2022/12/30 12:08:08;;;;;;;;;;;17.40;82.80;;;;;;5114823;28;19908;-44
2022/12/30 12:10:35;;;;;;;;;;;17.40;82.80;;;;;;5114572;28;19908;-49
2022/12/30 12:13:15;;;;;;;;;;;17.40;82.80;;;;;;5114420;28;19921;-46
2022/12/30 12:15:41;;;;;;;;;;;17.40;82.80;;;;;;5114349;28;20323;-43
2022/12/30 12:18:06;;;;;;;;;;;17.40;82.80;;;;;;5113748;28;19962;-47
2022/12/30 12:21:05;;;;;;;;;;;17.40;82.90;;;;;;5113624;28;20274;-45
2022/12/30 12:23:49;;;;;;;;;;;17.40;82.90;;;;;;5069734;28;19912;-47
2022/12/30 12:26:29;;;;;;;;;;;17.40;82.80;;;;;;5114651;28;19908;-45
2022/12/30 12:28:56;;;;;;;;;;;17.40;82.80;;;;;;5114125;28;20344;-43
2022/12/30 12:31:21;;;;;;;;;;;17.40;82.90;;;;;;5096390;28;20000;-47
2022/12/30 12:33:50;;;;;;;;;;;17.40;82.90;;;;;;5113849;28;19994;-44
2022/12/30 12:36:34;;;;;;;;;;;17.40;82.80;;;;;;5114490;28;19912;-45
2022/12/30 12:39:06;;;;;;;;;;;17.40;82.80;;;;;;5114425;28;20098;-45
2022/12/30 12:41:50;;;;;;;;;;;17.40;82.80;;;;;;5114546;28;19949;-48
2022/12/30 12:44:16;;;;;;;;;;;17.40;82.80;;;;;;5114474;28;20226;-45
2022/12/30 12:46:48;;;;;;;;;;;17.40;82.80;;;;;;5114062;28;19907;-44
2022/12/30 12:49:21;;;;;;;;;;;17.40;82.80;;;;;;5114729;28;19934;-43
2022/12/30 12:52:05;;;;;;;;;;;17.40;82.80;;;;;;5114429;28;19962;-44
2022/12/30 12:54:34;;;;;;;;;;;17.40;82.80;;;;;;5114094;28;19908;-44
2022/12/30 12:57:08;;;;;;;;;;;17.40;82.70;;;;;;5114015;28;19919;-43
2022/12/30 12:59:34;;;;;;;;;;;17.40;82.70;;;;;;5114231;28;19907;-43
2022/12/30 13:02:04;;;;;;;;;;;17.40;82.70;;;;;;5114594;28;19919;-43
2022/12/30 13:04:36;;;;;;;;;;;17.40;82.70;;;;;;5113990;28;19941;-44
2022/12/30 13:07:14;;;;;;;;;;;17.40;82.70;;;;;;5114096;28;19915;-46
2022/12/30 13:09:56;;;;;;;;;;;17.50;82.70;;;;;;5113955;28;20414;-46
2022/12/30 13:12:25;;;;;;;;;;;17.40;82.70;;;;;;5113825;28;19916;-44
2022/12/30 13:14:55;;;;;;;;;;;17.40;82.70;;;;;;5113961;28;19912;-50
2022/12/30 13:17:36;;;;;;;;;;;17.40;82.70;;;;;;5113636;28;20325;-48
2022/12/30 13:20:14;;;;;;;;;;;17.40;82.70;;;;;;5113881;28;19915;-43
2022/12/30 13:22:39;;;;;;;;;;;17.40;82.80;;;;;;5114222;28;19915;-43
2022/12/30 13:25:12;;;;;;;;;;;17.40;82.70;;;;;;5113972;28;19908;-43
2022/12/30 13:27:38;;;;;;;;;;;17.40;82.70;;;;;;5113765;28;19993;-45
2022/12/30 13:30:05;;;;;;;;;;;17.50;82.80;;;;;;5114332;28;20352;-44
2022/12/30 13:32:44;;;;;;;;;;;17.50;82.70;;;;;;5117986;28;19915;-46
2022/12/30 13:35:28;;;;;;;;;;;17.50;82.70;;;;;;5117802;28;20297;-44
2022/12/30 13:37:59;;;;;;;;;;;17.60;82.60;;;;;;5117647;28;19927;-44
2022/12/30 13:40:27;;;;;;;;;;;17.60;82.60;;;;;;5117986;28;19908;-43
2022/12/30 13:42:59;;;;;;;;;;;17.60;82.50;;;;;;5117840;28;19908;-43
2022/12/30 13:45:42;;;;;;;;;;;17.60;82.50;;;;;;5117908;28;20258;-44
2022/12/30 13:48:13;;;;;;;;;;;17.60;82.40;;;;;;5117893;28;19908;-44
2022/12/30 13:50:40;;;;;;;;;;;17.60;82.40;;;;;;5117395;28;19974;-46
2022/12/30 13:53:25;;;;;;;;;;;17.60;82.40;;;;;;5099387;28;19914;-46
2022/12/30 13:55:51;;;;;;;;;;;17.60;82.40;;;;;;5116798;28;19938;-45
2022/12/30 13:58:19;;;;;;;;;;;17.60;82.50;;;;;;5117403;28;19916;-44
2022/12/30 14:00:45;;;;;;;;;;;17.60;82.50;;;;;;5117268;28;19908;-45
2022/12/30 14:03:13;;;;;;;;;;;17.60;82.50;;;;;;5117418;28;19918;-45
2022/12/30 14:05:38;;;;;;;;;;;17.60;82.50;;;;;;5116997;28;19908;-44
2022/12/30 14:08:24;;;;;;;;;;;17.60;82.50;;;;;;5116964;28;19930;-45
2022/12/30 14:10:52;;;;;;;;;;;17.50;82.50;;;;;;5084584;28;19915;-44
2022/12/30 14:13:24;;;;;;;;;;;17.50;82.50;;;;;;5117198;28;20311;-46
2022/12/30 14:15:51;;;;;;;;;;;17.50;82.50;;;;;;5117157;28;19933;-45
2022/12/30 14:18:16;;;;;;;;;;;17.50;82.60;;;;;;5116958;28;19916;-43
2022/12/30 14:20:42;;;;;;;;;;;17.50;82.60;;;;;;5117066;28;19912;-44
2022/12/30 14:23:28;;;;;;;;;;;17.50;82.70;;;;;;5116725;28;20350;-44
2022/12/30 14:26:13;;;;;;;;;;;17.50;82.70;;;;;;5111134;28;20370;-43
2022/12/30 14:28:42;;;;;;;;;;;17.50;82.70;;;;;;5092990;28;20298;-48
2022/12/30 14:31:22;;;;;;;;;;;17.50;82.60;;;;;;5095831;28;19958;-47
2022/12/30 14:33:48;;;;;;;;;;;17.60;82.60;;;;;;5095110;28;19919;-45
2022/12/30 14:36:13;;;;;;;;;;;17.60;82.60;;;;;;5093786;28;19920;-45
2022/12/30 14:38:48;;;;;;;;;;;17.70;82.60;;;;;;5094632;28;19966;-41
2022/12/30 14:41:23;;;;;;;;;;;17.80;82.50;;;;;;5099802;28;20006;-45
2022/12/30 14:43:54;;;;;;;;;;;17.90;81.00;;;;;;5093483;28;20255;-44
2022/12/30 14:46:33;;;;;;;;;;;18.00;81.10;;;;;;5098176;28;19916;-50
2022/12/30 14:49:00;;;;;;;;;;;18.20;81.40;;;;;;5092694;28;19954;-43
2022/12/30 14:51:26;;;;;;;;;;;18.40;81.20;;;;;;5095527;28;20291;-45
2022/12/30 14:53:52;;;;;;;;;;;18.60;80.90;;;;;;5093878;28;19970;-44
2022/12/30 14:56:18;;;;;;;;;;;18.80;80.50;;;;;;5097249;28;19924;-43
2022/12/30 14:58:45;;;;;;;;;;;18.90;80.20;;;;;;5095229;28;19908;-43
2022/12/30 15:01:11;;;;;;;;;;;19.00;80.00;;;;;;5094257;28;19916;-44
2022/12/30 15:03:36;;;;;;;;;;;19.10;79.70;;;;;;5105205;28;19973;-39
2022/12/30 15:06:02;;;;;;;;;;;19.30;79.60;;;;;;5102706;28;20265;-48
2022/12/30 15:08:38;;;;;;;;;;;19.30;79.50;;;;;;5109739;28;19919;-47
2022/12/30 15:11:05;;;;;;;;;;;19.40;79.40;;;;;;5094197;28;19919;-49
2022/12/30 15:13:33;;;;;;;;;;;19.50;79.30;;;;;;5106544;28;19915;-54
2022/12/30 15:15:58;;;;;;;;;;;19.50;79.30;;;;;;5109488;28;19912;-55
2022/12/30 15:18:24;;;;;;;;;;;19.50;79.20;;;;;;5101895;28;19974;-50
2022/12/30 15:20:49;;;;;;;;;;;19.50;79.20;;;;;;5105665;28;19928;-47